sensor_id;sensor_type;location;lat;lon;timestamp;temperature;humidity
77305;DHT22;66364;52.622;7.746;2023-08-06T00:00:16;15.20;99.90
77305;DHT22;66364;52.622;7.746;2023-08-06T00:02:19;15.00;99.90
77305;DHT22;66364;52.622;7.746;2023-08-06T00:04:22;14.90;99.90
77305;DHT22;66364;52.622;7.746;2023-08-06T00:06:25;14.90;99.90
77305;DHT22;66364;52.622;7.746;2023-08-06T00:08:28;14.90;99.90
77305;DHT22;66364;52.622;7.746;2023-08-06T00:10:31;14.80;99.90
77305;DHT22;66364;52.622;7.746;2023-08-06T00:12:37;14.80;99.90
77305;DHT22;66364;52.622;7.746;2023-08-06T00:14:39;15.00;99.90
77305;DHT22;66364;52.622;7.746;2023-08-06T00:16:43;14.80;99.90
77305;DHT22;66364;52.622;7.746;2023-08-06T00:19:03;14.90;99.90
77305;DHT22;66364;52.622;7.746;2023-08-06T00:21:05;14.90;99.90
77305;DHT22;66364;52.622;7.746;2023-08-06T00:23:07;14.80;99.90
77305;DHT22;66364;52.622;7.746;2023-08-06T00:25:10;14.80;99.90
77305;DHT22;66364;52.622;7.746;2023-08-06T00:27:13;14.80;99.90
77305;DHT22;66364;52.622;7.746;2023-08-06T00:29:15;14.80;99.90
77305;DHT22;66364;52.622;7.746;2023-08-06T00:31:18;14.90;99.90
77305;DHT22;66364;52.622;7.746;2023-08-06T00:33:22;14.80;99.90
77305;DHT22;66364;52.622;7.746;2023-08-06T00:35:30;14.80;99.90
77305;DHT22;66364;52.622;7.746;2023-08-06T00:37:31;14.80;99.90
77305;DHT22;66364;52.622;7.746;2023-08-06T00:39:32;14.80;99.90
77305;DHT22;66364;52.622;7.746;2023-08-06T00:41:33;14.80;99.90
77305;DHT22;66364;52.622;7.746;2023-08-06T00:43:34;14.60;99.90
77305;DHT22;66364;52.622;7.746;2023-08-06T00:45:37;14.80;99.90
77305;DHT22;66364;52.622;7.746;2023-08-06T00:47:38;14.90;99.90
77305;DHT22;66364;52.622;7.746;2023-08-06T00:49:40;14.90;99.90
77305;DHT22;66364;52.622;7.746;2023-08-06T00:51:42;14.90;99.90
77305;DHT22;66364;52.622;7.746;2023-08-06T00:53:47;14.70;99.90
77305;DHT22;66364;52.622;7.746;2023-08-06T00:55:51;14.80;99.90
77305;DHT22;66364;52.622;7.746;2023-08-06T00:57:52;14.70;99.90
77305;DHT22;66364;52.622;7.746;2023-08-06T00:59:54;14.70;99.90
77305;DHT22;66364;52.622;7.746;2023-08-06T01:01:55;14.70;99.90
77305;DHT22;66364;52.622;7.746;2023-08-06T01:03:56;14.70;99.90
77305;DHT22;66364;52.622;7.746;2023-08-06T01:05:57;14.80;99.90
77305;DHT22;66364;52.622;7.746;2023-08-06T01:08:15;14.60;99.90
77305;DHT22;66364;52.622;7.746;2023-08-06T01:13:08;14.70;99.90
77305;DHT22;66364;52.622;7.746;2023-08-06T01:15:27;14.60;99.90
77305;DHT22;66364;52.622;7.746;2023-08-06T01:17:21;14.90;99.90
77305;DHT22;66364;52.622;7.746;2023-08-06T01:19:25;14.80;99.90
77305;DHT22;66364;52.622;7.746;2023-08-06T01:21:26;14.70;99.90
77305;DHT22;66364;52.622;7.746;2023-08-06T01:23:28;14.60;99.90
77305;DHT22;66364;52.622;7.746;2023-08-06T01:25:38;14.90;99.90
77305;DHT22;66364;52.622;7.746;2023-08-06T01:27:47;14.80;99.90
77305;DHT22;66364;52.622;7.746;2023-08-06T01:30:33;14.80;99.90
77305;DHT22;66364;52.622;7.746;2023-08-06T01:31:57;14.80;99.90
77305;DHT22;66364;52.622;7.746;2023-08-06T01:34:01;14.80;99.90
77305;DHT22;66364;52.622;7.746;2023-08-06T01:36:03;14.90;99.90
77305;DHT22;66364;52.622;7.746;2023-08-06T01:38:06;14.70;99.90
77305;DHT22;66364;52.622;7.746;2023-08-06T01:40:10;14.70;99.90
77305;DHT22;66364;52.622;7.746;2023-08-06T01:42:11;14.70;99.90
77305;DHT22;66364;52.622;7.746;2023-08-06T01:44:12;14.70;99.90
77305;DHT22;66364;52.622;7.746;2023-08-06T01:46:15;14.70;99.90
77305;DHT22;66364;52.622;7.746;2023-08-06T01:48:16;14.70;99.90
77305;DHT22;66364;52.622;7.746;2023-08-06T01:50:18;14.60;99.90
77305;DHT22;66364;52.622;7.746;2023-08-06T01:52:18;14.70;99.90
77305;DHT22;66364;52.622;7.746;2023-08-06T01:54:20;14.70;99.90
77305;DHT22;66364;52.622;7.746;2023-08-06T01:56:20;14.80;99.90
77305;DHT22;66364;52.622;7.746;2023-08-06T01:58:21;14.60;99.90
77305;DHT22;66364;52.622;7.746;2023-08-06T02:00:22;14.50;99.90
77305;DHT22;66364;52.622;7.746;2023-08-06T02:02:23;14.80;99.90
77305;DHT22;66364;52.622;7.746;2023-08-06T02:04:24;14.70;99.90
77305;DHT22;66364;52.622;7.746;2023-08-06T02:06:25;14.60;99.90
77305;DHT22;66364;52.622;7.746;2023-08-06T02:08:27;14.80;99.90
77305;DHT22;66364;52.622;7.746;2023-08-06T02:10:28;14.70;99.90
77305;DHT22;66364;52.622;7.746;2023-08-06T02:12:29;14.60;99.90
77305;DHT22;66364;52.622;7.746;2023-08-06T02:14:30;14.80;99.90
77305;DHT22;66364;52.622;7.746;2023-08-06T02:16:31;14.70;99.90
77305;DHT22;66364;52.622;7.746;2023-08-06T02:18:32;14.60;99.90
77305;DHT22;66364;52.622;7.746;2023-08-06T02:20:33;15.00;99.90
77305;DHT22;66364;52.622;7.746;2023-08-06T02:22:34;14.80;99.90
77305;DHT22;66364;52.622;7.746;2023-08-06T02:24:35;14.90;99.90
77305;DHT22;66364;52.622;7.746;2023-08-06T02:26:36;14.70;99.90
77305;DHT22;66364;52.622;7.746;2023-08-06T02:28:38;14.70;99.90
77305;DHT22;66364;52.622;7.746;2023-08-06T02:30:39;14.80;99.90
77305;DHT22;66364;52.622;7.746;2023-08-06T02:32:40;14.60;99.90
77305;DHT22;66364;52.622;7.746;2023-08-06T02:34:41;14.70;99.90
77305;DHT22;66364;52.622;7.746;2023-08-06T02:36:42;14.70;99.90
77305;DHT22;66364;52.622;7.746;2023-08-06T02:38:43;14.90;99.90
77305;DHT22;66364;52.622;7.746;2023-08-06T02:40:45;14.70;99.90
77305;DHT22;66364;52.622;7.746;2023-08-06T02:42:46;14.70;99.90
77305;DHT22;66364;52.622;7.746;2023-08-06T02:44:47;14.80;99.90
77305;DHT22;66364;52.622;7.746;2023-08-06T02:46:48;14.60;99.90
77305;DHT22;66364;52.622;7.746;2023-08-06T02:48:49;14.60;99.90
77305;DHT22;66364;52.622;7.746;2023-08-06T02:50:50;14.60;99.90
77305;DHT22;66364;52.622;7.746;2023-08-06T02:52:51;14.60;99.90
77305;DHT22;66364;52.622;7.746;2023-08-06T02:54:52;14.60;99.90
77305;DHT22;66364;52.622;7.746;2023-08-06T02:56:54;14.60;99.90
77305;DHT22;66364;52.622;7.746;2023-08-06T02:58:55;14.50;99.90
77305;DHT22;66364;52.622;7.746;2023-08-06T03:01:04;14.40;99.90
77305;DHT22;66364;52.622;7.746;2023-08-06T03:03:06;14.40;99.90
77305;DHT22;66364;52.622;7.746;2023-08-06T03:05:07;14.20;99.90
77305;DHT22;66364;52.622;7.746;2023-08-06T03:07:08;14.40;99.90
77305;DHT22;66364;52.622;7.746;2023-08-06T03:09:09;14.40;99.90
77305;DHT22;66364;52.622;7.746;2023-08-06T03:11:10;14.30;99.90
77305;DHT22;66364;52.622;7.746;2023-08-06T03:13:11;14.30;99.90
77305;DHT22;66364;52.622;7.746;2023-08-06T03:15:12;14.50;99.90
77305;DHT22;66364;52.622;7.746;2023-08-06T03:17:14;14.40;99.90
77305;DHT22;66364;52.622;7.746;2023-08-06T03:19:15;14.40;99.90
77305;DHT22;66364;52.622;7.746;2023-08-06T03:21:16;14.40;99.90
77305;DHT22;66364;52.622;7.746;2023-08-06T03:23:18;14.20;99.90
77305;DHT22;66364;52.622;7.746;2023-08-06T03:25:19;14.50;99.90
77305;DHT22;66364;52.622;7.746;2023-08-06T03:27:20;14.20;99.90
77305;DHT22;66364;52.622;7.746;2023-08-06T03:29:21;14.40;99.90
77305;DHT22;66364;52.622;7.746;2023-08-06T03:31:23;14.20;99.90
77305;DHT22;66364;52.622;7.746;2023-08-06T03:33:24;13.90;99.90
77305;DHT22;66364;52.622;7.746;2023-08-06T03:35:25;14.10;99.90
77305;DHT22;66364;52.622;7.746;2023-08-06T03:37:26;14.10;99.90
77305;DHT22;66364;52.622;7.746;2023-08-06T03:39:27;14.30;99.90
77305;DHT22;66364;52.622;7.746;2023-08-06T03:41:28;14.50;99.90
77305;DHT22;66364;52.622;7.746;2023-08-06T03:43:29;14.10;99.90
77305;DHT22;66364;52.622;7.746;2023-08-06T03:45:30;14.10;99.90
77305;DHT22;66364;52.622;7.746;2023-08-06T03:47:31;14.10;99.90
77305;DHT22;66364;52.622;7.746;2023-08-06T03:49:32;14.40;99.90
77305;DHT22;66364;52.622;7.746;2023-08-06T03:51:34;14.50;99.90
77305;DHT22;66364;52.622;7.746;2023-08-06T03:53:35;14.40;99.90
77305;DHT22;66364;52.622;7.746;2023-08-06T03:55:35;14.10;99.90
77305;DHT22;66364;52.622;7.746;2023-08-06T03:57:36;14.30;99.90
77305;DHT22;66364;52.622;7.746;2023-08-06T03:59:37;14.10;99.90
77305;DHT22;66364;52.622;7.746;2023-08-06T04:01:38;13.90;99.90
77305;DHT22;66364;52.622;7.746;2023-08-06T04:03:39;13.90;99.90
77305;DHT22;66364;52.622;7.746;2023-08-06T04:05:42;13.70;99.90
77305;DHT22;66364;52.622;7.746;2023-08-06T04:07:43;14.00;99.90
77305;DHT22;66364;52.622;7.746;2023-08-06T04:09:56;13.80;99.90
77305;DHT22;66364;52.622;7.746;2023-08-06T04:11:57;13.90;99.90
77305;DHT22;66364;52.622;7.746;2023-08-06T04:13:58;14.00;99.90
77305;DHT22;66364;52.622;7.746;2023-08-06T04:16:03;13.90;99.90
77305;DHT22;66364;52.622;7.746;2023-08-06T04:18:04;14.00;99.90
77305;DHT22;66364;52.622;7.746;2023-08-06T04:20:06;14.00;99.90
77305;DHT22;66364;52.622;7.746;2023-08-06T04:22:08;13.70;99.90
77305;DHT22;66364;52.622;7.746;2023-08-06T04:24:08;14.20;99.90
77305;DHT22;66364;52.622;7.746;2023-08-06T04:26:09;14.10;99.90
77305;DHT22;66364;52.622;7.746;2023-08-06T04:28:10;14.10;99.90
77305;DHT22;66364;52.622;7.746;2023-08-06T04:30:12;14.40;99.90
77305;DHT22;66364;52.622;7.746;2023-08-06T04:32:13;14.10;99.90
77305;DHT22;66364;52.622;7.746;2023-08-06T04:34:14;14.10;99.90
77305;DHT22;66364;52.622;7.746;2023-08-06T04:36:15;14.50;99.90
77305;DHT22;66364;52.622;7.746;2023-08-06T04:38:17;14.20;99.90
77305;DHT22;66364;52.622;7.746;2023-08-06T04:40:18;14.30;99.90
77305;DHT22;66364;52.622;7.746;2023-08-06T04:42:18;14.30;99.90
77305;DHT22;66364;52.622;7.746;2023-08-06T04:44:20;14.20;99.90
77305;DHT22;66364;52.622;7.746;2023-08-06T04:46:21;14.50;99.90
77305;DHT22;66364;52.622;7.746;2023-08-06T04:48:22;14.40;99.90
77305;DHT22;66364;52.622;7.746;2023-08-06T04:50:23;14.50;99.90
77305;DHT22;66364;52.622;7.746;2023-08-06T04:52:24;14.40;99.90
77305;DHT22;66364;52.622;7.746;2023-08-06T04:54:25;14.40;99.90
77305;DHT22;66364;52.622;7.746;2023-08-06T04:56:26;14.40;99.90
77305;DHT22;66364;52.622;7.746;2023-08-06T04:58:27;14.40;99.90
77305;DHT22;66364;52.622;7.746;2023-08-06T05:00:28;14.70;99.90
77305;DHT22;66364;52.622;7.746;2023-08-06T05:02:30;14.80;99.90
77305;DHT22;66364;52.622;7.746;2023-08-06T05:04:31;14.90;99.90
77305;DHT22;66364;52.622;7.746;2023-08-06T05:06:32;14.60;99.90
77305;DHT22;66364;52.622;7.746;2023-08-06T05:08:33;14.60;99.90
77305;DHT22;66364;52.622;7.746;2023-08-06T05:10:34;14.60;99.90
77305;DHT22;66364;52.622;7.746;2023-08-06T05:12:35;14.60;99.90
77305;DHT22;66364;52.622;7.746;2023-08-06T05:14:36;14.60;99.90
77305;DHT22;66364;52.622;7.746;2023-08-06T05:16:37;14.90;99.90
77305;DHT22;66364;52.622;7.746;2023-08-06T05:18:38;14.70;99.90
77305;DHT22;66364;52.622;7.746;2023-08-06T05:20:41;14.70;99.90
77305;DHT22;66364;52.622;7.746;2023-08-06T05:22:43;14.80;99.90
77305;DHT22;66364;52.622;7.746;2023-08-06T05:24:44;14.80;99.90
77305;DHT22;66364;52.622;7.746;2023-08-06T05:26:45;14.90;99.90
77305;DHT22;66364;52.622;7.746;2023-08-06T05:28:46;14.90;99.90
77305;DHT22;66364;52.622;7.746;2023-08-06T05:30:47;14.90;99.90
77305;DHT22;66364;52.622;7.746;2023-08-06T05:32:48;14.90;99.90
77305;DHT22;66364;52.622;7.746;2023-08-06T05:34:49;14.90;99.90
77305;DHT22;66364;52.622;7.746;2023-08-06T05:36:51;15.00;99.90
77305;DHT22;66364;52.622;7.746;2023-08-06T05:38:52;15.00;99.90
77305;DHT22;66364;52.622;7.746;2023-08-06T05:40:53;14.90;99.90
77305;DHT22;66364;52.622;7.746;2023-08-06T05:42:56;14.90;99.90
77305;DHT22;66364;52.622;7.746;2023-08-06T05:44:57;14.90;99.90
77305;DHT22;66364;52.622;7.746;2023-08-06T05:46:58;14.90;99.90
77305;DHT22;66364;52.622;7.746;2023-08-06T05:48:59;14.70;99.90
77305;DHT22;66364;52.622;7.746;2023-08-06T05:51:00;14.80;99.90
77305;DHT22;66364;52.622;7.746;2023-08-06T05:53:01;14.80;99.90
77305;DHT22;66364;52.622;7.746;2023-08-06T05:55:03;14.80;99.90
77305;DHT22;66364;52.622;7.746;2023-08-06T05:57:04;14.80;99.90
77305;DHT22;66364;52.622;7.746;2023-08-06T05:59:06;14.90;99.90
77305;DHT22;66364;52.622;7.746;2023-08-06T06:01:06;14.80;99.90
77305;DHT22;66364;52.622;7.746;2023-08-06T06:03:08;14.90;99.90
77305;DHT22;66364;52.622;7.746;2023-08-06T06:05:09;14.90;99.90
77305;DHT22;66364;52.622;7.746;2023-08-06T06:07:11;14.90;99.90
77305;DHT22;66364;52.622;7.746;2023-08-06T06:09:12;14.70;99.90
77305;DHT22;66364;52.622;7.746;2023-08-06T06:11:13;14.80;99.90
77305;DHT22;66364;52.622;7.746;2023-08-06T06:13:14;14.70;99.90
77305;DHT22;66364;52.622;7.746;2023-08-06T06:15:16;14.90;99.90
77305;DHT22;66364;52.622;7.746;2023-08-06T06:17:16;15.20;99.90
77305;DHT22;66364;52.622;7.746;2023-08-06T06:19:17;14.90;99.90
77305;DHT22;66364;52.622;7.746;2023-08-06T06:21:19;14.90;99.90
77305;DHT22;66364;52.622;7.746;2023-08-06T06:23:21;15.10;99.90
77305;DHT22;66364;52.622;7.746;2023-08-06T06:25:22;15.00;99.90
77305;DHT22;66364;52.622;7.746;2023-08-06T06:27:24;15.20;99.90
77305;DHT22;66364;52.622;7.746;2023-08-06T06:29:25;15.00;99.90
77305;DHT22;66364;52.622;7.746;2023-08-06T06:31:26;15.00;99.90
77305;DHT22;66364;52.622;7.746;2023-08-06T06:33:27;14.90;99.90
77305;DHT22;66364;52.622;7.746;2023-08-06T06:35:30;14.90;99.90
77305;DHT22;66364;52.622;7.746;2023-08-06T06:37:31;15.00;99.90
77305;DHT22;66364;52.622;7.746;2023-08-06T06:39:33;15.10;99.90
77305;DHT22;66364;52.622;7.746;2023-08-06T06:41:34;15.30;99.90
77305;DHT22;66364;52.622;7.746;2023-08-06T06:43:35;15.00;99.90
77305;DHT22;66364;52.622;7.746;2023-08-06T06:45:36;15.10;99.90
77305;DHT22;66364;52.622;7.746;2023-08-06T06:47:37;15.20;99.90
77305;DHT22;66364;52.622;7.746;2023-08-06T06:49:38;15.20;99.90
77305;DHT22;66364;52.622;7.746;2023-08-06T06:51:39;15.30;99.90
77305;DHT22;66364;52.622;7.746;2023-08-06T06:53:40;15.40;99.90
77305;DHT22;66364;52.622;7.746;2023-08-06T06:55:42;15.40;99.90
77305;DHT22;66364;52.622;7.746;2023-08-06T06:57:43;15.40;99.90
77305;DHT22;66364;52.622;7.746;2023-08-06T06:59:43;15.60;99.90
77305;DHT22;66364;52.622;7.746;2023-08-06T07:01:45;15.60;99.90
77305;DHT22;66364;52.622;7.746;2023-08-06T07:03:46;15.60;99.90
77305;DHT22;66364;52.622;7.746;2023-08-06T07:05:48;15.60;99.90
77305;DHT22;66364;52.622;7.746;2023-08-06T07:07:49;15.90;99.90
77305;DHT22;66364;52.622;7.746;2023-08-06T07:09:51;16.20;99.90
77305;DHT22;66364;52.622;7.746;2023-08-06T07:11:52;15.90;99.90
77305;DHT22;66364;52.622;7.746;2023-08-06T07:13:57;16.00;99.90
77305;DHT22;66364;52.622;7.746;2023-08-06T07:15:58;16.30;99.90
77305;DHT22;66364;52.622;7.746;2023-08-06T07:17:59;16.10;99.90
77305;DHT22;66364;52.622;7.746;2023-08-06T07:20:00;16.10;99.90
77305;DHT22;66364;52.622;7.746;2023-08-06T07:22:01;16.20;99.90
77305;DHT22;66364;52.622;7.746;2023-08-06T07:24:02;16.30;99.90
77305;DHT22;66364;52.622;7.746;2023-08-06T07:26:06;16.30;99.90
77305;DHT22;66364;52.622;7.746;2023-08-06T07:28:07;16.40;99.90
77305;DHT22;66364;52.622;7.746;2023-08-06T07:30:08;16.60;99.90
77305;DHT22;66364;52.622;7.746;2023-08-06T07:32:09;16.60;99.90
77305;DHT22;66364;52.622;7.746;2023-08-06T07:34:10;16.90;99.90
77305;DHT22;66364;52.622;7.746;2023-08-06T07:36:12;16.90;99.90
77305;DHT22;66364;52.622;7.746;2023-08-06T07:38:14;16.90;99.90
77305;DHT22;66364;52.622;7.746;2023-08-06T07:40:15;17.00;99.90
77305;DHT22;66364;52.622;7.746;2023-08-06T07:42:16;17.10;99.90
77305;DHT22;66364;52.622;7.746;2023-08-06T07:44:18;17.20;99.90
77305;DHT22;66364;52.622;7.746;2023-08-06T07:46:19;17.00;99.90
77305;DHT22;66364;52.622;7.746;2023-08-06T07:48:21;17.40;99.90
77305;DHT22;66364;52.622;7.746;2023-08-06T07:50:22;17.50;99.90
77305;DHT22;66364;52.622;7.746;2023-08-06T07:52:23;17.70;99.90
77305;DHT22;66364;52.622;7.746;2023-08-06T07:54:24;17.60;99.90
77305;DHT22;66364;52.622;7.746;2023-08-06T07:56:24;17.80;99.90
77305;DHT22;66364;52.622;7.746;2023-08-06T07:58:26;17.90;99.90
77305;DHT22;66364;52.622;7.746;2023-08-06T08:00:28;18.10;99.90
77305;DHT22;66364;52.622;7.746;2023-08-06T08:02:29;18.40;99.90
77305;DHT22;66364;52.622;7.746;2023-08-06T08:04:31;18.50;99.90
77305;DHT22;66364;52.622;7.746;2023-08-06T08:06:33;18.40;99.90
77305;DHT22;66364;52.622;7.746;2023-08-06T08:08:35;18.10;99.90
77305;DHT22;66364;52.622;7.746;2023-08-06T08:10:39;17.90;99.90
77305;DHT22;66364;52.622;7.746;2023-08-06T08:12:41;18.00;99.90
77305;DHT22;66364;52.622;7.746;2023-08-06T08:14:43;18.10;99.90
77305;DHT22;66364;52.622;7.746;2023-08-06T08:16:46;18.30;99.90
77305;DHT22;66364;52.622;7.746;2023-08-06T08:18:47;19.00;99.90
77305;DHT22;66364;52.622;7.746;2023-08-06T08:20:51;19.10;99.90
77305;DHT22;66364;52.622;7.746;2023-08-06T08:22:52;19.20;99.90
77305;DHT22;66364;52.622;7.746;2023-08-06T08:25:01;19.60;99.90
77305;DHT22;66364;52.622;7.746;2023-08-06T08:27:02;19.40;99.90
77305;DHT22;66364;52.622;7.746;2023-08-06T08:29:03;19.60;99.90
77305;DHT22;66364;52.622;7.746;2023-08-06T08:31:09;19.40;99.90
77305;DHT22;66364;52.622;7.746;2023-08-06T08:33:10;19.40;99.90
77305;DHT22;66364;52.622;7.746;2023-08-06T08:35:11;19.40;99.90
77305;DHT22;66364;52.622;7.746;2023-08-06T08:37:13;19.40;99.90
77305;DHT22;66364;52.622;7.746;2023-08-06T08:39:14;19.50;99.90
77305;DHT22;66364;52.622;7.746;2023-08-06T08:41:15;19.50;99.90
77305;DHT22;66364;52.622;7.746;2023-08-06T08:43:17;19.10;99.90
77305;DHT22;66364;52.622;7.746;2023-08-06T08:45:20;19.50;99.90
77305;DHT22;66364;52.622;7.746;2023-08-06T08:47:27;19.80;99.90
77305;DHT22;66364;52.622;7.746;2023-08-06T08:49:28;20.00;99.90
77305;DHT22;66364;52.622;7.746;2023-08-06T08:51:31;20.20;99.90
77305;DHT22;66364;52.622;7.746;2023-08-06T08:53:35;20.30;99.90
77305;DHT22;66364;52.622;7.746;2023-08-06T08:55:37;20.50;99.90
77305;DHT22;66364;52.622;7.746;2023-08-06T08:57:38;20.80;99.90
77305;DHT22;66364;52.622;7.746;2023-08-06T08:59:39;20.90;99.90
77305;DHT22;66364;52.622;7.746;2023-08-06T09:01:42;20.90;99.90
77305;DHT22;66364;52.622;7.746;2023-08-06T09:03:44;21.10;99.90
77305;DHT22;66364;52.622;7.746;2023-08-06T09:05:45;21.30;99.90
77305;DHT22;66364;52.622;7.746;2023-08-06T09:07:49;21.50;99.90
77305;DHT22;66364;52.622;7.746;2023-08-06T09:09:57;21.60;99.90
77305;DHT22;66364;52.622;7.746;2023-08-06T09:12:01;21.70;99.90
77305;DHT22;66364;52.622;7.746;2023-08-06T09:14:02;21.70;99.90
77305;DHT22;66364;52.622;7.746;2023-08-06T09:16:03;21.60;99.90
77305;DHT22;66364;52.622;7.746;2023-08-06T09:18:11;21.60;99.90
77305;DHT22;66364;52.622;7.746;2023-08-06T09:20:13;21.70;99.90
77305;DHT22;66364;52.622;7.746;2023-08-06T09:22:14;21.80;99.90
77305;DHT22;66364;52.622;7.746;2023-08-06T09:24:15;21.90;99.90
77305;DHT22;66364;52.622;7.746;2023-08-06T09:26:16;22.00;99.90
77305;DHT22;66364;52.622;7.746;2023-08-06T09:28:18;22.00;99.90
77305;DHT22;66364;52.622;7.746;2023-08-06T09:30:39;21.80;99.90
77305;DHT22;66364;52.622;7.746;2023-08-06T09:32:48;21.50;99.90
77305;DHT22;66364;52.622;7.746;2023-08-06T09:34:55;21.80;99.90
77305;DHT22;66364;52.622;7.746;2023-08-06T09:36:54;22.50;99.90
77305;DHT22;66364;52.622;7.746;2023-08-06T09:38:56;22.90;96.50
77305;DHT22;66364;52.622;7.746;2023-08-06T09:40:57;23.40;95.00
77305;DHT22;66364;52.622;7.746;2023-08-06T09:42:58;23.20;92.20
77305;DHT22;66364;52.622;7.746;2023-08-06T09:45:07;23.00;94.10
77305;DHT22;66364;52.622;7.746;2023-08-06T09:47:08;23.10;94.90
77305;DHT22;66364;52.622;7.746;2023-08-06T09:49:10;23.10;92.30
77305;DHT22;66364;52.622;7.746;2023-08-06T09:51:13;22.90;92.20
77305;DHT22;66364;52.622;7.746;2023-08-06T09:53:15;22.30;95.30
77305;DHT22;66364;52.622;7.746;2023-08-06T09:55:16;22.40;92.20
77305;DHT22;66364;52.622;7.746;2023-08-06T09:57:20;22.60;91.80
77305;DHT22;66364;52.622;7.746;2023-08-06T09:59:23;22.80;92.70
77305;DHT22;66364;52.622;7.746;2023-08-06T10:01:24;23.00;93.50
77305;DHT22;66364;52.622;7.746;2023-08-06T10:03:25;23.60;94.30
77305;DHT22;66364;52.622;7.746;2023-08-06T10:05:26;24.70;93.40
77305;DHT22;66364;52.622;7.746;2023-08-06T10:07:29;25.40;84.90
77305;DHT22;66364;52.622;7.746;2023-08-06T10:09:31;24.90;80.50
77305;DHT22;66364;52.622;7.746;2023-08-06T10:11:33;24.30;87.20
77305;DHT22;66364;52.622;7.746;2023-08-06T10:13:34;23.70;87.90
77305;DHT22;66364;52.622;7.746;2023-08-06T10:15:36;23.20;90.80
77305;DHT22;66364;52.622;7.746;2023-08-06T10:17:40;22.80;91.90
77305;DHT22;66364;52.622;7.746;2023-08-06T10:19:41;22.50;91.80
77305;DHT22;66364;52.622;7.746;2023-08-06T10:24:07;22.40;93.80
77305;DHT22;66364;52.622;7.746;2023-08-06T10:26:08;22.50;92.50
77305;DHT22;66364;52.622;7.746;2023-08-06T10:28:11;22.40;91.40
77305;DHT22;66364;52.622;7.746;2023-08-06T10:30:29;22.20;92.20
77305;DHT22;66364;52.622;7.746;2023-08-06T10:33:20;22.30;94.00
77305;DHT22;66364;52.622;7.746;2023-08-06T10:34:59;22.40;91.60
77305;DHT22;66364;52.622;7.746;2023-08-06T10:37:01;22.60;92.80
77305;DHT22;66364;52.622;7.746;2023-08-06T10:39:02;22.90;92.70
77305;DHT22;66364;52.622;7.746;2023-08-06T10:41:04;23.60;92.20
77305;DHT22;66364;52.622;7.746;2023-08-06T10:43:05;24.10;88.80
77305;DHT22;66364;52.622;7.746;2023-08-06T10:45:20;24.20;88.30
77305;DHT22;66364;52.622;7.746;2023-08-06T10:47:28;24.20;87.50
77305;DHT22;66364;52.622;7.746;2023-08-06T10:49:29;23.90;85.80
77305;DHT22;66364;52.622;7.746;2023-08-06T10:51:32;23.60;84.10
77305;DHT22;66364;52.622;7.746;2023-08-06T10:53:33;23.40;85.80
77305;DHT22;66364;52.622;7.746;2023-08-06T10:55:35;23.00;86.50
77305;DHT22;66364;52.622;7.746;2023-08-06T10:57:36;22.90;86.40
77305;DHT22;66364;52.622;7.746;2023-08-06T10:59:37;23.00;89.70
77305;DHT22;66364;52.622;7.746;2023-08-06T11:01:38;23.00;87.70
77305;DHT22;66364;52.622;7.746;2023-08-06T11:03:40;23.10;87.10
77305;DHT22;66364;52.622;7.746;2023-08-06T11:05:50;23.30;85.90
77305;DHT22;66364;52.622;7.746;2023-08-06T11:07:51;23.30;88.10
77305;DHT22;66364;52.622;7.746;2023-08-06T11:09:52;23.60;89.10
77305;DHT22;66364;52.622;7.746;2023-08-06T11:11:53;23.90;88.30
77305;DHT22;66364;52.622;7.746;2023-08-06T11:13:54;23.90;87.40
77305;DHT22;66364;52.622;7.746;2023-08-06T11:15:55;23.70;90.40
77305;DHT22;66364;52.622;7.746;2023-08-06T11:17:57;23.70;89.30
77305;DHT22;66364;52.622;7.746;2023-08-06T11:20:00;23.60;89.20
77305;DHT22;66364;52.622;7.746;2023-08-06T11:22:01;23.60;89.20
77305;DHT22;66364;52.622;7.746;2023-08-06T11:24:02;23.70;89.90
77305;DHT22;66364;52.622;7.746;2023-08-06T11:26:03;24.20;90.00
77305;DHT22;66364;52.622;7.746;2023-08-06T11:28:04;24.80;87.30
77305;DHT22;66364;52.622;7.746;2023-08-06T11:30:07;25.20;84.00
77305;DHT22;66364;52.622;7.746;2023-08-06T11:32:09;25.20;80.90
77305;DHT22;66364;52.622;7.746;2023-08-06T11:34:10;25.20;83.90
77305;DHT22;66364;52.622;7.746;2023-08-06T11:36:11;25.40;78.80
77305;DHT22;66364;52.622;7.746;2023-08-06T11:38:13;25.40;80.90
77305;DHT22;66364;52.622;7.746;2023-08-06T11:40:15;25.70;80.50
77305;DHT22;66364;52.622;7.746;2023-08-06T11:42:16;25.90;74.70
77305;DHT22;66364;52.622;7.746;2023-08-06T11:44:21;25.90;76.80
77305;DHT22;66364;52.622;7.746;2023-08-06T11:46:23;26.00;77.70
77305;DHT22;66364;52.622;7.746;2023-08-06T11:48:24;26.00;74.50
77305;DHT22;66364;52.622;7.746;2023-08-06T11:50:26;26.30;74.20
77305;DHT22;66364;52.622;7.746;2023-08-06T11:52:28;26.60;72.10
77305;DHT22;66364;52.622;7.746;2023-08-06T11:54:32;26.70;72.40
77305;DHT22;66364;52.622;7.746;2023-08-06T11:56:33;26.10;70.00
77305;DHT22;66364;52.622;7.746;2023-08-06T11:58:35;25.40;71.90
77305;DHT22;66364;52.622;7.746;2023-08-06T12:00:36;24.50;78.30
77305;DHT22;66364;52.622;7.746;2023-08-06T12:02:42;24.00;77.60
77305;DHT22;66364;52.622;7.746;2023-08-06T12:05:04;23.70;82.50
77305;DHT22;66364;52.622;7.746;2023-08-06T12:07:06;23.70;80.60
77305;DHT22;66364;52.622;7.746;2023-08-06T12:09:07;23.50;82.30
77305;DHT22;66364;52.622;7.746;2023-08-06T12:11:08;23.60;82.00
77305;DHT22;66364;52.622;7.746;2023-08-06T12:13:09;23.50;81.60
77305;DHT22;66364;52.622;7.746;2023-08-06T12:15:11;23.30;82.60
77305;DHT22;66364;52.622;7.746;2023-08-06T12:17:13;23.10;85.20
77305;DHT22;66364;52.622;7.746;2023-08-06T12:19:13;23.20;86.50
77305;DHT22;66364;52.622;7.746;2023-08-06T12:21:14;23.30;85.20
77305;DHT22;66364;52.622;7.746;2023-08-06T12:23:15;23.20;84.90
77305;DHT22;66364;52.622;7.746;2023-08-06T12:25:16;23.20;83.70
77305;DHT22;66364;52.622;7.746;2023-08-06T12:27:18;23.10;86.10
77305;DHT22;66364;52.622;7.746;2023-08-06T12:29:19;23.30;85.20
77305;DHT22;66364;52.622;7.746;2023-08-06T12:31:20;23.50;83.50
77305;DHT22;66364;52.622;7.746;2023-08-06T12:33:21;23.60;83.90
77305;DHT22;66364;52.622;7.746;2023-08-06T12:35:22;23.70;81.60
77305;DHT22;66364;52.622;7.746;2023-08-06T12:37:29;23.60;79.10
77305;DHT22;66364;52.622;7.746;2023-08-06T12:39:31;23.80;82.90
77305;DHT22;66364;52.622;7.746;2023-08-06T12:41:32;24.40;81.40
77305;DHT22;66364;52.622;7.746;2023-08-06T12:43:32;24.90;77.10
77305;DHT22;66364;52.622;7.746;2023-08-06T12:45:34;25.30;76.90
77305;DHT22;66364;52.622;7.746;2023-08-06T12:47:36;25.30;72.20
77305;DHT22;66364;52.622;7.746;2023-08-06T12:49:38;25.00;73.70
77305;DHT22;66364;52.622;7.746;2023-08-06T12:51:39;24.90;73.10
77305;DHT22;66364;52.622;7.746;2023-08-06T12:53:40;24.80;73.40
77305;DHT22;66364;52.622;7.746;2023-08-06T12:55:41;24.40;74.10